Time;durP1;ratioP1;P1;durP2;ratioP2;P2;SDS_P1;SDS_P2;PMS_P1;PMS_P2;Temp;Humidity;BMP_temperature;BMP_pressure;BME280_temperature;BME280_humidity;BME280_pressure;Samples;Min_cycle;Max_cycle;Signal;HPM_P1;HPM_P2
2021/12/07 00:01:57;;;;;;;10.70;7.88;;;;;;;4.52;76.03;98692.59;5032746;28;20032;-48
2021/12/07 00:04:24;;;;;;;15.63;12.32;;;;;;;4.60;76.74;98683.00;5032640;28;20530;-47
2021/12/07 00:06:49;;;;;;;14.45;11.43;;;;;;;4.76;77.10;98684.00;5032535;28;20029;-48
2021/12/07 00:09:17;;;;;;;18.05;11.52;;;;;;;4.95;76.86;98686.25;5032628;28;20044;-48
2021/12/07 00:11:44;;;;;;;11.07;9.38;;;;;;;5.05;76.42;98695.66;5032531;28;20108;-47
2021/12/07 00:14:13;;;;;;;9.02;5.97;;;;;;;5.06;76.42;98692.09;5031235;28;20125;-48
2021/12/07 00:16:43;;;;;;;12.10;6.60;;;;;;;4.91;75.80;98687.56;5032410;28;20089;-48
2021/12/07 00:19:10;;;;;;;10.90;7.40;;;;;;;4.66;76.72;98686.75;5032437;28;20029;-47
2021/12/07 00:21:36;;;;;;;11.02;7.38;;;;;;;4.59;77.05;98681.38;5032327;28;20056;-48
2021/12/07 00:24:02;;;;;;;11.00;8.18;;;;;;;4.38;76.54;98678.44;5032380;28;20049;-47
2021/12/07 00:26:28;;;;;;;10.25;8.38;;;;;;;4.15;77.21;98673.88;5032184;28;20033;-48
2021/12/07 00:28:55;;;;;;;10.30;8.13;;;;;;;4.08;78.20;98678.06;5032241;28;20044;-47
2021/12/07 00:31:48;;;;;;;9.88;8.23;;;;;;;4.13;77.66;98678.41;5032201;28;20037;-48
2021/12/07 00:34:19;;;;;;;15.05;8.00;;;;;;;4.12;77.78;98688.94;5017077;28;20042;-46
2021/12/07 00:36:47;;;;;;;10.95;7.65;;;;;;;4.35;78.17;98689.97;5032077;28;20041;-48
2021/12/07 00:39:17;;;;;;;8.70;6.82;;;;;;;4.68;77.41;98684.78;5032117;28;20037;-48
2021/12/07 00:42:10;;;;;;;12.73;7.25;;;;;;;4.70;77.25;98680.25;5032684;28;20025;-47
2021/12/07 00:44:35;;;;;;;8.70;6.78;;;;;;;4.83;76.38;98679.78;5032012;28;20033;-48
2021/12/07 00:47:01;;;;;;;9.38;6.30;;;;;;;5.04;75.93;98686.25;5031901;28;20406;-48
2021/12/07 00:49:28;;;;;;;11.60;6.22;;;;;;;5.12;75.52;98679.25;5014212;28;20033;-47
2021/12/07 00:51:54;;;;;;;10.07;6.22;;;;;;;5.27;74.30;98670.75;5014193;28;20024;-48
2021/12/07 00:54:20;;;;;;;10.48;6.40;;;;;;;5.01;73.15;98669.19;5031830;28;20037;-48
2021/12/07 00:56:46;;;;;;;7.88;6.40;;;;;;;4.84;73.45;98685.78;5031821;28;20507;-48
2021/12/07 00:59:12;;;;;;;7.75;6.07;;;;;;;4.77;74.01;98685.63;5031842;28;20026;-47
2021/12/07 01:01:38;;;;;;;12.32;6.90;;;;;;;4.74;74.73;98693.75;5031739;28;20448;-48
2021/12/07 01:04:04;;;;;;;8.10;6.30;;;;;;;4.74;74.49;98697.16;5031800;28;20041;-49
2021/12/07 01:06:59;;;;;;;15.38;7.32;;;;;;;4.91;75.43;98710.13;5031643;28;20029;-48
2021/12/07 01:25:40;;;;;;;28.25;23.40;;;;;;;4.89;75.62;98710.31;5031625;28;20087;-47
2021/12/07 01:28:21;;;;;;;18.00;15.00;;;;;;;4.90;75.97;98721.53;5031473;28;20080;-47
2021/12/07 01:31:02;;;;;;;10.57;7.25;;;;;;;4.89;76.16;98712.91;5031488;28;20030;-47
2021/12/07 01:33:48;;;;;;;9.65;6.97;;;;;;;4.89;76.14;98723.31;5031530;28;20033;-49
2021/12/07 01:36:34;;;;;;;;;;;;;;;4.83;75.88;98731.78;5031691;28;20138;-48
2021/12/07 01:42:52;;;;;;;8.05;6.07;;;;;;;4.89;77.56;98748.50;5031339;28;20517;-48
2021/12/07 01:47:21;;;;;;;15.20;11.20;;;;;;;5.23;78.08;98765.72;5031182;28;20404;-48
2021/12/07 01:50:13;;;;;;;14.45;10.75;;;;;;;5.30;77.85;98759.72;5031201;28;20025;-48
2021/12/07 02:00:33;;;;;;;28.92;24.00;;;;;;;5.66;78.14;98767.13;5031192;28;20562;-48
2021/12/07 02:02:59;;;;;;;22.05;12.98;;;;;;;5.69;77.86;98774.59;5013457;28;20442;-47
2021/12/07 02:05:25;;;;;;;13.63;11.07;;;;;;;5.73;77.08;98781.09;5031159;28;20034;-47
2021/12/07 02:07:51;;;;;;;13.07;11.15;;;;;;;5.57;76.20;98781.13;5031148;28;20033;-48
2021/12/07 02:10:21;;;;;;;14.88;11.45;;;;;;;5.36;77.25;98790.28;5031039;28;20109;-47
2021/12/07 02:12:49;;;;;;;17.95;12.55;;;;;;;5.31;77.32;98789.97;5032119;28;20109;-48
2021/12/07 02:15:19;;;;;;;14.50;10.98;;;;;;;5.23;77.07;98792.53;5016925;28;20108;-47
2021/12/07 02:17:45;;;;;;;14.60;10.88;;;;;;;5.16;77.15;98805.41;5034714;28;20026;-48
2021/12/07 02:20:13;;;;;;;13.50;11.18;;;;;;;5.31;76.89;98810.78;5016799;28;20022;-49
2021/12/07 02:22:39;;;;;;;12.73;10.80;;;;;;;5.30;76.23;98818.75;5034610;28;20028;-48
2021/12/07 02:25:08;;;;;;;16.98;10.63;;;;;;;5.25;76.42;98821.00;5034585;28;20057;-48
2021/12/07 02:27:34;;;;;;;15.82;10.40;;;;;;;5.19;75.97;98819.88;5034411;28;20028;-47
2021/12/07 02:30:00;;;;;;;19.15;12.05;;;;;;;5.04;75.57;98809.31;5034455;28;20029;-48
2021/12/07 02:32:26;;;;;;;15.65;11.25;;;;;;;5.03;76.60;98815.50;5034403;28;20021;-47
2021/12/07 02:34:58;;;;;;;15.02;10.38;;;;;;;5.22;77.06;98816.16;5016560;28;20026;-47
2021/12/07 02:37:26;;;;;;;15.57;10.20;;;;;;;5.35;76.86;98813.84;5034092;28;20046;-48
2021/12/07 02:39:53;;;;;;;16.38;10.90;;;;;;;5.62;77.00;98825.72;5034308;28;20083;-47
2021/12/07 02:42:19;;;;;;;13.25;10.05;;;;;;;5.73;75.65;98822.75;5034219;28;20030;-48
2021/12/07 02:44:45;;;;;;;13.13;10.70;;;;;;;5.55;75.23;98827.34;5034457;28;20399;-48
2021/12/07 02:47:10;;;;;;;16.15;10.73;;;;;;;5.47;75.80;98825.56;5034103;28;20018;-48
2021/12/07 02:49:36;;;;;;;16.02;10.57;;;;;;;5.47;75.92;98830.75;5034186;28;20124;-48
2021/12/07 02:52:04;;;;;;;13.45;10.98;;;;;;;5.47;75.85;98840.38;5034039;28;20022;-49
2021/12/07 02:54:34;;;;;;;13.05;10.23;;;;;;;5.30;75.45;98836.97;5033984;28;20026;-47
2021/12/07 02:57:01;;;;;;;13.27;10.63;;;;;;;5.29;75.56;98837.91;5034235;28;20065;-48
2021/12/07 02:59:28;;;;;;;14.48;10.98;;;;;;;5.09;74.89;98832.22;5033953;28;20434;-47
2021/12/07 03:02:01;;;;;;;15.20;11.13;;;;;;;4.82;75.36;98835.94;5033942;28;20022;-47
2021/12/07 03:04:35;;;;;;;18.13;11.68;;;;;;;4.60;75.82;98836.34;5033932;28;20030;-48
2021/12/07 03:07:12;;;;;;;16.40;11.40;;;;;;;4.61;76.14;98834.59;5033738;28;20021;-48
2021/12/07 03:10:00;;;;;;;14.25;10.68;;;;;;;4.66;75.90;98834.91;5033835;28;20513;-47
2021/12/07 03:28:21;;;;;;;18.02;11.30;;;;;;;3.94;76.30;98840.47;5033329;28;20315;-47
2021/12/07 03:30:46;;;;;;;19.15;11.57;;;;;;;3.88;76.89;98838.47;5033321;28;20025;-48
2021/12/07 03:33:13;;;;;;;17.52;12.27;;;;;;;3.78;76.85;98845.56;5033290;28;20061;-48
2021/12/07 03:35:38;;;;;;;14.15;11.25;;;;;;;3.72;77.15;98839.22;5034226;28;20023;-47
2021/12/07 03:38:06;;;;;;;13.38;10.52;;;;;;;3.79;77.28;98835.03;5053197;28;20104;-47
2021/12/07 03:40:32;;;;;;;14.05;10.35;;;;;;;4.05;78.33;98838.59;5053105;28;20029;-48
2021/12/07 03:43:00;;;;;;;15.75;10.75;;;;;;;4.36;77.74;98844.88;5035116;28;20083;-47
2021/12/07 03:45:26;;;;;;;12.45;10.13;;;;;;;4.40;76.98;98841.00;5052979;28;20376;-48
2021/12/07 03:47:53;;;;;;;18.45;11.57;;;;;;;4.28;76.67;98844.03;5052897;28;20024;-47
2021/12/07 03:50:22;;;;;;;15.57;11.18;;;;;;;4.17;76.58;98845.13;5052890;28;20112;-48
2021/12/07 03:52:49;;;;;;;16.30;12.00;;;;;;;4.17;76.40;98850.34;5052808;28;20017;-47
2021/12/07 03:55:15;;;;;;;15.52;10.82;;;;;;;4.06;76.44;98851.41;5052723;28;20091;-47
2021/12/07 03:57:41;;;;;;;14.38;11.75;;;;;;;4.00;76.50;98847.66;5052719;28;20025;-48
2021/12/07 04:00:11;;;;;;;20.08;11.82;;;;;;;3.92;76.96;98854.56;5052692;28;20024;-47
2021/12/07 04:02:40;;;;;;;16.20;11.90;;;;;;;3.84;76.32;98857.91;5052746;28;20028;-48
2021/12/07 04:05:14;;;;;;;17.33;12.27;;;;;;;3.85;77.08;98859.56;5052616;28;20111;-47
2021/12/07 04:07:41;;;;;;;15.50;12.63;;;;;;;4.17;77.93;98855.53;5052577;28;20108;-48
2021/12/07 04:10:10;;;;;;;13.10;9.93;;;;;;;4.39;77.20;98857.56;5052317;28;20035;-47
2021/12/07 04:12:37;;;;;;;14.82;10.88;;;;;;;4.59;77.17;98862.53;5052548;28;20060;-47
2021/12/07 04:15:08;;;;;;;14.68;10.50;;;;;;;4.87;76.40;98859.66;5052417;28;20028;-47
2021/12/07 04:17:34;;;;;;;17.83;11.23;;;;;;;5.05;75.83;98856.94;5052313;28;20070;-47
2021/12/07 04:20:01;;;;;;;14.48;10.70;;;;;;;5.19;75.46;98856.28;5052365;28;20033;-47
2021/12/07 04:22:27;;;;;;;17.85;10.70;;;;;;;5.39;75.93;98854.19;5052230;28;20017;-48
2021/12/07 04:24:53;;;;;;;26.55;13.57;;;;;;;5.54;75.23;98854.38;5034379;28;20237;-46
2021/12/07 04:27:19;;;;;;;19.42;12.85;;;;;;;5.37;74.47;98856.13;5052102;28;20020;-48
2021/12/07 04:29:45;;;;;;;23.02;12.68;;;;;;;5.24;73.77;98871.44;5052187;28;20017;-46
2021/12/07 04:32:11;;;;;;;13.48;11.88;;;;;;;4.97;73.79;98868.13;5052088;28;20546;-48
2021/12/07 04:34:38;;;;;;;14.73;11.63;;;;;;;4.66;73.66;98863.50;5034215;28;20057;-48
2021/12/07 04:37:05;;;;;;;15.15;12.13;;;;;;;4.46;73.71;98862.13;5051469;28;20041;-48
2021/12/07 04:39:31;;;;;;;18.73;11.52;;;;;;;4.27;74.14;98855.41;5052034;28;20056;-48
2021/12/07 04:41:57;;;;;;;15.65;12.10;;;;;;;4.08;73.93;98856.44;5052003;28;20057;-47
2021/12/07 04:44:23;;;;;;;14.05;10.85;;;;;;;3.98;74.31;98864.34;5051935;28;20059;-46
2021/12/07 04:57:38;;;;;;;18.52;13.27;;;;;;;4.02;75.36;98855.28;5023093;28;20037;-48
2021/12/07 05:00:07;;;;;;;13.70;10.85;;;;;;;4.06;75.11;98856.59;5050498;28;20061;-47
2021/12/07 05:02:35;;;;;;;19.23;11.88;;;;;;;4.04;75.25;98858.53;5051765;28;20028;-47
2021/12/07 05:05:01;;;;;;;15.70;11.40;;;;;;;4.16;75.35;98852.09;5051618;28;20465;-48
2021/12/07 05:07:34;;;;;;;15.50;10.23;;;;;;;4.28;75.71;98847.44;5051631;28;20017;-48
2021/12/07 05:12:37;;;;;;;16.95;11.48;;;;;;;4.50;73.67;98859.06;5051656;28;20112;-48
2021/12/07 05:15:19;;;;;;;17.17;12.55;;;;;;;4.31;73.77;98852.34;5051615;28;20027;-47
2021/12/07 05:18:01;;;;;;;19.70;11.98;;;;;;;4.13;74.24;98844.63;5051639;28;20032;-48
2021/12/07 05:39:30;;;;;;;27.13;19.13;;;;;;;3.70;74.43;98845.50;5051510;28;20628;-48
2021/12/07 05:41:57;;;;;;;27.63;15.52;;;;;;;3.62;74.38;98848.84;5051648;28;20100;-47
2021/12/07 05:44:22;;;;;;;23.35;14.93;;;;;;;3.55;75.06;98858.22;5051350;28;20021;-47
2021/12/07 05:46:48;;;;;;;28.10;19.90;;;;;;;3.58;75.26;98860.50;5051240;28;20501;-48
2021/12/07 05:49:14;;;;;;;30.55;20.25;;;;;;;3.86;76.18;98861.19;5054836;28;20025;-47
2021/12/07 05:51:39;;;;;;;21.52;15.77;;;;;;;4.37;75.31;98864.72;5055186;28;20112;-47
2021/12/07 05:54:05;;;;;;;23.23;14.15;;;;;;;4.71;73.81;98861.25;5055158;28;20024;-48
2021/12/07 05:56:31;;;;;;;16.42;12.68;;;;;;;4.85;73.48;98872.84;5055067;28;20021;-48
2021/12/07 05:58:57;;;;;;;18.95;13.55;;;;;;;4.84;72.64;98876.41;5055101;28;20425;-48
2021/12/07 06:01:22;;;;;;;22.63;13.00;;;;;;;4.73;72.29;98866.31;5037056;28;20033;-48
2021/12/07 06:03:48;;;;;;;19.20;13.88;;;;;;;4.59;71.99;98867.72;5054953;28;20035;-47
2021/12/07 06:06:14;;;;;;;20.90;14.52;;;;;;;4.43;72.03;98860.69;5036862;28;20052;-48
2021/12/07 06:08:40;;;;;;;22.23;15.52;;;;;;;4.35;72.80;98860.66;5036932;28;20052;-48
2021/12/07 06:11:05;;;;;;;15.80;11.98;;;;;;;4.27;72.92;98856.22;5054812;28;20024;-47
2021/12/07 06:13:31;;;;;;;18.15;12.98;;;;;;;4.30;73.64;98849.91;5054823;28;20021;-48
2021/12/07 06:16:03;;;;;;;21.15;12.60;;;;;;;4.47;74.05;98841.19;5054694;28;20027;-47
2021/12/07 06:18:29;;;;;;;18.58;11.52;;;;;;;4.66;73.75;98834.91;5054742;28;20055;-48
2021/12/07 06:20:54;;;;;;;14.60;11.45;;;;;;;4.76;73.37;98838.19;5054626;28;20554;-49
2021/12/07 06:23:20;;;;;;;18.77;11.80;;;;;;;4.87;73.53;98837.09;5036619;28;20498;-48
2021/12/07 06:25:48;;;;;;;29.52;11.40;;;;;;;5.25;73.27;98836.63;5036590;28;20095;-48
2021/12/07 06:28:15;;;;;;;17.08;10.93;;;;;;;5.75;72.12;98839.03;5036477;28;20032;-49
2021/12/07 06:30:43;;;;;;;20.55;10.50;;;;;;;5.92;70.69;98839.81;5054436;28;20116;-48
2021/12/07 06:33:09;;;;;;;17.33;11.73;;;;;;;5.77;70.24;98833.66;5054365;28;20017;-49
2021/12/07 06:35:35;;;;;;;17.10;11.00;;;;;;;5.60;70.24;98835.47;5036092;28;20406;-48
2021/12/07 06:38:01;;;;;;;18.38;12.25;;;;;;;5.40;69.91;98828.00;5054309;28;20090;-47
2021/12/07 06:40:27;;;;;;;26.83;13.27;;;;;;;5.30;70.77;98822.16;5054256;28;20036;-48
2021/12/07 06:42:54;;;;;;;24.63;13.57;;;;;;;5.41;71.68;98826.22;5054268;28;20017;-49
2021/12/07 06:45:20;;;;;;;47.17;35.70;;;;;;;5.18;70.64;98832.06;5036268;28;20465;-49
2021/12/07 06:47:46;;;;;;;34.58;14.95;;;;;;;5.28;71.58;98836.31;5036213;28;20025;-47
2021/12/07 06:50:11;;;;;;;24.50;14.85;;;;;;;5.34;70.69;98838.25;5054071;28;20056;-47
2021/12/07 06:52:38;;;;;;;29.70;16.55;;;;;;;5.27;70.90;98843.31;5054086;28;20513;-48
2021/12/07 06:55:06;;;;;;;17.83;12.80;;;;;;;5.31;71.03;98849.81;5053937;28;20025;-48
2021/12/07 06:57:31;;;;;;;19.77;12.35;;;;;;;5.45;70.59;98844.91;5053973;28;20017;-48
2021/12/07 06:59:57;;;;;;;19.42;12.68;;;;;;;5.50;70.43;98838.25;5053755;28;20025;-48
2021/12/07 07:02:23;;;;;;;16.52;11.15;;;;;;;5.50;70.00;98840.06;5035947;28;20398;-48
2021/12/07 07:04:48;;;;;;;19.73;12.25;;;;;;;5.39;69.45;98831.59;5052495;28;20037;-48
2021/12/07 07:07:16;;;;;;;17.40;12.38;;;;;;;5.11;69.55;98830.28;5053696;28;20021;-48
2021/12/07 07:09:42;;;;;;;17.85;12.77;;;;;;;4.72;69.42;98821.28;5053739;28;20061;-48
2021/12/07 07:12:08;;;;;;;24.25;14.98;;;;;;;4.35;70.29;98814.69;5053663;28;20438;-49
2021/12/07 07:14:33;;;;;;;19.38;13.20;;;;;;;4.11;71.49;98815.41;5052390;28;20032;-47
2021/12/07 07:16:59;;;;;;;19.00;13.80;;;;;;;3.94;71.64;98813.69;5053577;28;20032;-48
2021/12/07 07:19:25;;;;;;;21.33;13.57;;;;;;;3.73;72.50;98811.47;5053501;28;20032;-48
2021/12/07 07:21:51;;;;;;;19.98;14.77;;;;;;;3.63;73.04;98813.34;5053521;28;20021;-47
2021/12/07 07:24:16;;;;;;;26.20;14.45;;;;;;;3.57;73.22;98823.38;5053450;28;20017;-48
2021/12/07 07:26:42;;;;;;;22.77;13.90;;;;;;;3.58;73.79;98825.00;5053331;28;20108;-48
2021/12/07 07:29:08;;;;;;;21.52;12.98;;;;;;;3.69;74.28;98815.34;5053396;28;20029;-48
2021/12/07 07:31:36;;;;;;;24.38;13.32;;;;;;;4.03;74.56;98817.16;5053322;28;20021;-47
2021/12/07 07:34:03;;;;;;;24.17;14.38;;;;;;;4.25;73.73;98819.19;5053233;28;20503;-47
2021/12/07 07:36:28;;;;;;;25.52;14.55;;;;;;;4.37;73.19;98820.53;5052942;28;20483;-48
2021/12/07 07:38:54;;;;;;;23.55;14.00;;;;;;;4.64;72.98;98820.44;5053197;28;20060;-48
2021/12/07 07:41:20;;;;;;;21.05;13.25;;;;;;;5.03;72.56;98825.91;5053113;28;20406;-48
2021/12/07 07:43:46;;;;;;;30.58;16.50;;;;;;;5.39;72.01;98829.00;5035189;28;20053;-48
2021/12/07 07:46:12;;;;;;;35.00;20.88;;;;;;;6.01;71.57;98827.59;5035040;28;20456;-48
2021/12/07 07:48:38;;;;;;;45.17;27.10;;;;;;;6.64;69.87;98825.06;5052920;28;20521;-48
2021/12/07 07:51:04;;;;;;;32.80;17.75;;;;;;;7.11;68.53;98821.53;5034942;28;20080;-49
2021/12/07 07:53:29;;;;;;;18.58;12.98;;;;;;;7.31;66.11;98822.66;5034915;28;20066;-48
2021/12/07 07:55:55;;;;;;;18.92;13.35;;;;;;;7.14;66.15;98834.22;5034886;28;20123;-49
2021/12/07 07:58:21;;;;;;;22.25;13.93;;;;;;;6.92;66.62;98826.22;5052816;28;20021;-48
2021/12/07 08:00:48;;;;;;;20.13;13.98;;;;;;;6.70;66.65;98819.16;5052749;28;20024;-48
2021/12/07 08:03:14;;;;;;;20.67;12.80;;;;;;;6.57;67.32;98823.16;5052752;28;20055;-49
2021/12/07 08:05:40;;;;;;;21.80;14.30;;;;;;;6.39;66.56;98830.41;5034749;28;20122;-48
2021/12/07 08:08:06;;;;;;;22.77;17.33;;;;;;;6.19;66.99;98830.00;5052517;28;20502;-49
2021/12/07 08:10:32;;;;;;;19.55;13.88;;;;;;;6.19;67.39;98830.81;5034091;28;20032;-49
2021/12/07 08:13:02;;;;;;;17.35;13.13;;;;;;;6.30;67.88;98821.81;5052541;28;20092;-49
2021/12/07 08:15:31;;;;;;;23.70;14.57;;;;;;;6.46;66.72;98818.34;5052448;28;20520;-48
2021/12/07 08:17:58;;;;;;;24.52;15.90;;;;;;;6.47;66.76;98819.94;5052395;28;20017;-50
2021/12/07 08:20:24;;;;;;;23.00;14.20;;;;;;;6.51;67.58;98818.63;5034764;28;20036;-49
2021/12/07 08:22:50;;;;;;;24.25;13.20;;;;;;;6.53;66.95;98815.84;5052304;28;20021;-48
2021/12/07 08:25:16;;;;;;;23.38;14.85;;;;;;;6.64;67.08;98810.25;5052269;28;20497;-49
2021/12/07 08:27:42;;;;;;;22.00;13.25;;;;;;;6.77;67.38;98813.09;5052204;28;20029;-48
2021/12/07 08:30:11;;;;;;;27.17;14.48;;;;;;;6.77;66.69;98805.28;5034241;28;20116;-47
2021/12/07 08:32:39;;;;;;;17.52;12.73;;;;;;;6.77;66.32;98794.84;5052167;28;20490;-48
2021/12/07 08:35:05;;;;;;;17.55;13.00;;;;;;;6.80;66.68;98801.50;5052138;28;20298;-51
2021/12/07 08:37:31;;;;;;;23.20;13.27;;;;;;;6.85;66.81;98798.38;5051934;28;20045;-48
2021/12/07 08:39:57;;;;;;;18.80;12.27;;;;;;;7.57;67.16;98779.69;5052101;28;20028;-49
2021/12/07 08:42:22;;;;;;;15.65;12.05;;;;;;;8.93;66.35;98773.09;5052049;28;20071;-49
2021/12/07 08:44:48;;;;;;;17.88;11.25;;;;;;;10.08;63.56;98760.59;5052047;28;20150;-49
2021/12/07 08:47:14;;;;;;;19.10;11.70;;;;;;;10.91;62.64;98762.25;5051912;28;20487;-49
2021/12/07 08:49:40;;;;;;;22.23;12.60;;;;;;;11.60;59.54;98764.44;5051909;28;20468;-49
2021/12/07 08:52:06;;;;;;;22.40;12.13;;;;;;;11.86;57.08;98765.41;5033960;28;20029;-50
2021/12/07 08:59:37;;;;;;;18.73;12.13;;;;;;;11.72;56.55;98759.38;5051854;28;20017;-49
2021/12/07 09:00:06;;;;;;;19.10;12.48;;;;;;;12.65;55.59;98752.16;5052115;28;20563;-49
2021/12/07 09:02:33;;;;;;;16.67;12.73;;;;;;;13.04;54.36;98743.19;5051790;28;20108;-49
2021/12/07 09:04:59;;;;;;;28.23;15.27;;;;;;;13.39;52.70;98750.59;5051725;28;20595;-49
2021/12/07 09:07:26;;;;;;;20.48;13.25;;;;;;;13.53;51.67;98743.38;5051565;28;20036;-51
2021/12/07 09:09:52;;;;;;;23.92;13.57;;;;;;;13.82;51.66;98743.69;5033671;28;20033;-49
2021/12/07 09:12:19;;;;;;;28.60;13.80;;;;;;;14.42;50.43;98724.50;5033797;28;20036;-51
2021/12/07 09:14:46;;;;;;;23.35;14.35;;;;;;;14.88;48.97;98725.69;5051603;28;20021;-49
2021/12/07 09:17:14;;;;;;;22.40;13.32;;;;;;;15.08;47.94;98728.00;5051568;28;20029;-52
2021/12/07 09:19:40;;;;;;;18.63;13.20;;;;;;;14.56;48.75;98736.50;5051498;28;20025;-49
2021/12/07 09:22:07;;;;;;;20.42;12.80;;;;;;;14.73;48.92;98726.91;5051549;28;20029;-48
2021/12/07 09:24:35;;;;;;;12.82;10.85;;;;;;;15.45;48.12;98727.78;5055627;28;20029;-49
2021/12/07 09:27:01;;;;;;;14.23;10.93;;;;;;;16.24;46.57;98722.84;5055403;28;20029;-49
2021/12/07 09:29:27;;;;;;;19.25;10.60;;;;;;;16.73;45.19;98728.47;5055647;28;20029;-49
2021/12/07 09:31:54;;;;;;;19.58;11.68;;;;;;;16.64;44.24;98721.13;5055471;28;20021;-49
2021/12/07 09:34:20;;;;;;;12.80;10.80;;;;;;;16.11;45.09;98726.53;5055550;28;20107;-50
2021/12/07 09:36:46;;;;;;;19.30;11.68;;;;;;;15.84;45.01;98722.84;5026881;28;20136;-50
2021/12/07 09:39:14;;;;;;;24.27;12.93;;;;;;;15.77;45.46;98720.31;5035529;28;20069;-49
2021/12/07 09:41:40;;;;;;;19.77;12.77;;;;;;;16.18;44.73;98721.13;5035414;28;20100;-49
2021/12/07 09:44:07;;;;;;;16.40;10.75;;;;;;;16.64;43.95;98719.31;5035410;28;20390;-49
2021/12/07 09:46:34;;;;;;;23.58;10.95;;;;;;;17.06;42.92;98712.84;5035232;28;20032;-49
2021/12/07 09:49:00;;;;;;;13.63;10.07;;;;;;;17.31;41.36;98694.66;5035287;28;20018;-49
2021/12/07 09:51:27;;;;;;;13.65;10.15;;;;;;;17.28;41.85;98694.34;5035301;28;20021;-49
2021/12/07 09:53:54;;;;;;;17.00;10.93;;;;;;;17.66;40.27;98690.88;5035228;28;20105;-49
2021/12/07 09:56:22;;;;;;;14.25;10.02;;;;;;;17.38;40.83;98683.88;5017328;28;20022;-49
2021/12/07 09:58:50;;;;;;;19.75;10.48;;;;;;;16.54;41.42;98677.53;5017377;28;20025;-49
2021/12/07 10:01:16;;;;;;;15.82;10.88;;;;;;;16.74;41.40;98663.00;5035076;28;20056;-50
2021/12/07 10:03:43;;;;;;;15.85;10.55;;;;;;;17.25;41.33;98653.19;5035079;28;20045;-50
2021/12/07 10:06:09;;;;;;;24.52;11.10;;;;;;;17.61;40.34;98643.06;5034939;28;20033;-50
2021/12/07 10:08:35;;;;;;;21.02;10.48;;;;;;;17.88;39.36;98651.06;5034881;28;20076;-51
2021/12/07 10:11:04;;;;;;;15.98;10.48;;;;;;;18.60;39.39;98629.72;5034896;28;20025;-50
2021/12/07 10:13:31;;;;;;;15.50;10.95;;;;;;;18.59;36.89;98612.16;5034918;28;20087;-50
2021/12/07 10:16:00;;;;;;;17.45;14.25;;;;;;;18.01;38.44;98606.59;5034809;28;20117;-50
2021/12/07 10:18:29;;;;;;;17.98;10.60;;;;;;;18.01;38.94;98610.06;5034814;28;20022;-51
2021/12/07 10:20:59;;;;;;;15.70;11.43;;;;;;;18.52;38.53;98615.03;5035071;28;20455;-50
2021/12/07 10:23:30;;;;;;;397.85;359.30;;;;;;;18.94;38.60;98603.66;5034769;28;20514;-51
2021/12/07 10:26:01;;;;;;;212.98;190.43;;;;;;;19.27;37.80;98593.72;5016930;28;20072;-50
2021/12/07 10:28:37;;;;;;;18.48;15.10;;;;;;;19.62;37.13;98577.09;5034941;28;20183;-50
2021/12/07 10:31:12;;;;;;;;;;;;;;;20.07;39.32;98570.28;5017279;28;20029;-50
2021/12/07 10:33:52;;;;;;;14.88;12.98;;;;;;;20.06;36.77;98565.19;5034014;28;19936;-50
2021/12/07 10:36:25;;;;;;;20.92;14.80;;;;;;;19.47;36.83;98567.19;5040867;28;20044;-50
2021/12/07 10:38:54;;;;;;;15.52;13.23;;;;;;;19.03;37.48;98558.75;5054415;28;20025;-50
2021/12/07 10:41:23;;;;;;;14.25;11.10;;;;;;;18.78;38.16;98536.25;5054307;28;20021;-52
2021/12/07 10:44:03;;;;;;;13.85;10.43;;;;;;;18.83;38.05;98524.88;5054257;28;20070;-52
2021/12/07 10:46:34;;;;;;;11.93;10.20;;;;;;;18.93;38.19;98523.09;5036248;28;20035;-52
2021/12/07 10:49:29;;;;;;;18.77;9.85;;;;;;;19.27;38.30;98509.38;5054187;28;20021;-52
2021/12/07 10:52:12;;;;;;;16.60;12.32;;;;;;;19.56;37.64;98500.94;5052297;28;20110;-52
2021/12/07 10:54:41;;;;;;;14.43;8.98;;;;;;;19.73;36.53;98501.50;5053994;28;20376;-50
2021/12/07 10:57:14;;;;;;;14.60;8.93;;;;;;;19.62;36.60;98491.91;5053948;28;20059;-49
2021/12/07 10:59:51;;;;;;;15.93;8.23;;;;;;;19.33;37.21;98486.25;5053979;28;20103;-50
2021/12/07 11:02:18;;;;;;;15.70;8.38;;;;;;;19.02;37.58;98485.34;5053918;28;20020;-52
2021/12/07 11:04:45;;;;;;;12.23;7.90;;;;;;;18.80;37.86;98486.31;5053848;28;20025;-52
2021/12/07 11:07:16;;;;;;;13.60;8.82;;;;;;;19.39;37.63;98492.38;5053718;28;20025;-52
2021/12/07 11:09:58;;;;;;;15.82;8.00;;;;;;;19.92;37.01;98491.16;5035900;28;20035;-50
2021/12/07 11:12:28;;;;;;;9.02;7.40;;;;;;;20.37;36.08;98483.41;5053734;28;20086;-49
2021/12/07 11:14:58;;;;;;;10.50;8.23;;;;;;;20.44;35.37;98475.13;5053628;28;20025;-50
2021/12/07 11:17:29;;;;;;;11.57;7.68;;;;;;;20.24;36.24;98470.63;5053689;28;20028;-49
2021/12/07 11:19:55;;;;;;;9.52;7.68;;;;;;;20.01;35.82;98451.47;5053612;28;20453;-52
2021/12/07 11:22:25;;;;;;;16.15;8.10;;;;;;;19.73;36.37;98450.13;5035509;28;20033;-52
2021/12/07 11:24:52;;;;;;;15.80;7.38;;;;;;;19.55;36.87;98444.22;5053488;28;20108;-52
2021/12/07 11:30:21;;;;;;;9.55;7.88;;;;;;;19.61;37.65;98417.63;5016809;28;20453;-50
2021/12/07 11:32:51;;;;;;;11.73;8.70;;;;;;;19.51;36.98;98403.22;5053309;28;20116;-52
2021/12/07 11:35:43;;;;;;;12.70;7.85;;;;;;;19.39;37.89;98394.72;5035310;28;20024;-49
2021/12/07 11:38:09;;;;;;;11.60;7.55;;;;;;;19.83;36.31;98378.22;5012468;28;20045;-50
2021/12/07 11:40:38;;;;;;;11.02;6.53;;;;;;;19.81;36.30;98366.25;5015361;28;20075;-51
2021/12/07 11:43:30;;;;;;;11.82;7.05;;;;;;;19.26;36.60;98366.75;5015472;28;20038;-49
2021/12/07 11:45:56;;;;;;;8.00;6.03;;;;;;;18.65;36.55;98359.44;5010306;28;20037;-51
2021/12/07 11:48:22;;;;;;;10.45;6.95;;;;;;;18.11;37.40;98352.56;5033044;28;20067;-51
2021/12/07 11:50:50;;;;;;;13.52;8.57;;;;;;;17.48;38.56;98346.25;5033042;28;20017;-51
2021/12/07 11:53:23;;;;;;;10.57;6.40;;;;;;;16.48;40.08;98343.91;5033257;28;20108;-51
2021/12/07 11:55:52;;;;;;;16.77;7.65;;;;;;;16.46;41.45;98324.81;5015237;28;20033;-51
2021/12/07 11:58:19;;;;;;;9.18;6.63;;;;;;;16.62;40.03;98316.00;5015118;28;20072;-51
2021/12/07 12:00:48;;;;;;;10.95;6.32;;;;;;;16.22;40.07;98300.44;5032876;28;20018;-51
2021/12/07 12:03:17;;;;;;;12.13;6.90;;;;;;;15.35;41.40;98287.59;5032813;28;20025;-51
2021/12/07 12:05:47;;;;;;;13.77;5.65;;;;;;;15.02;43.35;98287.56;5032768;28;20044;-52
2021/12/07 12:08:14;;;;;;;9.15;4.88;;;;;;;15.18;42.17;98292.06;5014929;28;20025;-51
2021/12/07 12:10:45;;;;;;;10.38;4.10;;;;;;;15.05;42.21;98292.38;5032642;28;20036;-52
2021/12/07 12:13:42;;;;;;;16.02;4.55;;;;;;;14.88;42.39;98281.78;5032670;28;20025;-52
2021/12/07 12:16:21;;;;;;;9.40;3.25;;;;;;;15.03;41.19;98262.75;5032195;28;20084;-51
2021/12/07 12:18:47;;;;;;;7.00;2.70;;;;;;;15.03;40.97;98262.75;5032621;28;20026;-51
2021/12/07 12:21:24;;;;;;;10.35;3.35;;;;;;;15.46;41.37;98263.94;5032466;28;20025;-51
2021/12/07 12:23:59;;;;;;;8.60;2.80;;;;;;;15.98;39.39;98266.28;5032548;28;20025;-52
2021/12/07 12:26:27;;;;;;;;;;;;;;;16.34;39.46;98264.84;5032750;28;20026;-51
2021/12/07 12:28:55;;;;;;;5.47;2.50;;;;;;;16.34;38.62;98262.19;5032360;28;19992;-51
2021/12/07 12:31:43;;;;;;;11.63;3.60;;;;;;;16.25;39.26;98265.53;5032272;28;20026;-51
2021/12/07 12:34:25;;;;;;;7.25;3.17;;;;;;;16.28;39.53;98262.38;5031016;28;20029;-50
2021/12/07 12:37:16;;;;;;;12.00;4.55;;;;;;;16.85;39.35;98259.28;5032059;28;20419;-51
2021/12/07 12:40:08;;;;;;;8.43;3.97;;;;;;;16.87;38.28;98256.38;5014407;28;20044;-51
2021/12/07 12:42:51;;;;;;;9.85;4.70;;;;;;;16.82;38.75;98248.38;5031980;28;20025;-51
2021/12/07 12:45:27;;;;;;;5.13;2.38;;;;;;;16.76;37.88;98243.03;5014599;28;20099;-51
2021/12/07 12:48:19;;;;;;;9.85;3.40;;;;;;;16.47;39.10;98246.97;5032004;28;20036;-50
2021/12/07 12:50:48;;;;;;;28.38;6.18;;;;;;;16.31;39.76;98238.06;5009836;28;20065;-52
2021/12/07 12:53:26;;;;;;;17.52;7.22;;;;;;;16.29;39.05;98224.25;5031771;28;20029;-51
2021/12/07 12:55:54;;;;;;;16.85;6.10;;;;;;;16.05;40.33;98219.22;5031904;28;20033;-51
2021/12/07 12:58:34;;;;;;;15.77;4.68;;;;;;;15.80;42.21;98221.59;5013917;28;20033;-52
2021/12/07 13:01:20;;;;;;;12.77;4.80;;;;;;;15.88;42.80;98211.38;5031922;28;20479;-52